CheckWX is a tool to help pilots better visualize weather data.  It is not intended as a substitute for an official pre-flight weather briefing.

03:13:08 UTC

FAWB METAR
Wonderboom Airport
Pretoria, South Africa
Current

11 hours ago

FAWB 251600Z VRB02KT CAVOK 20/09 Q1027
Observed
May-25 @ 16:00 UTC
Wind
  • Variable at 2 KTS
Visibility
10,000+ meters
Flight Rules
VFR
Cloud Levels
  • Clear skies
Temperature
20°C / 68°F
Dewpoint
C / 48°F
Humidity
49%
Altimeter
30.32" Hg
Pressure
1026.92 hPa
Previous

13 hours ago

FAWB 251400Z VRB05KT CAVOK 24/07 Q1026
Observed
May-25 @ 14:00 UTC
Wind
  • Variable at 5 KTS
Visibility
10,000+ meters
Flight Rules
VFR
Cloud Levels
  • Clear skies
Temperature
24°C / 75°F
Dewpoint
C / 45°F
Humidity
34%
Altimeter
30.3" Hg
Pressure
1025.92 hPa
Previous

18 hours ago

FAWB 250900Z 24002KT CAVOK 23/08 Q1030
Observed
May-25 @ 09:00 UTC
Wind
  • 240° at 2 KTS
Visibility
10,000+ meters
Flight Rules
VFR
Cloud Levels
  • Clear skies
Temperature
23°C / 73°F
Dewpoint
C / 46°F
Humidity
38%
Altimeter
30.41" Hg
Pressure
1029.92 hPa